Terminal Aerodrome Forecast
Issued by NWS Sterling, VA

Current Version | Previous Version | Graphics & Text | Print | Product List | Glossary On
Versions: 1 2 3 4 5 6 7 8 9 10 11 12 13 14 15 16 17 18 19 20 21 22 23 24 25 26
000
FTUS41 KLWX 131700
TAFIAD
TAF
KIAD 131733Z 1318/1424 19013G20KT P6SM SCT250
     FM140300 19010KT P6SM SCT250
     FM141000 19012KT P6SM BKN025
     FM141500 19015G23KT P6SM SCT050 BKN250=

USA.gov is the U.S. government's official web portal to all federal, state and local government web resources and services.